createdAt,value
2018-07-23T00:02:37.515Z,20.58
2018-07-23T00:07:39.639Z,20.51
2018-07-23T00:12:42.133Z,20.47
2018-07-23T00:17:44.303Z,20.52
2018-07-23T00:22:46.435Z,20.46
2018-07-23T00:27:48.601Z,20.46
2018-07-23T00:32:50.743Z,20.38
2018-07-23T00:37:52.901Z,20.37
2018-07-23T00:42:55.048Z,20.36
2018-07-23T00:47:57.179Z,20.27
2018-07-23T00:52:59.322Z,20.20
2018-07-23T00:58:01.529Z,20.16
2018-07-23T01:03:07.063Z,20.22
2018-07-23T01:08:09.205Z,20.14
2018-07-23T01:13:11.353Z,20.10
2018-07-23T01:18:13.514Z,19.73
2018-07-23T01:23:15.691Z,19.81
2018-07-23T01:28:17.828Z,19.83
2018-07-23T01:33:19.969Z,19.88
2018-07-23T01:38:22.156Z,19.83
2018-07-23T01:43:24.277Z,19.72
2018-07-23T01:48:26.419Z,19.67
2018-07-23T01:53:28.584Z,19.69
2018-07-23T01:58:30.788Z,19.39
2018-07-23T02:03:32.938Z,19.59
2018-07-23T02:08:35.063Z,19.74
2018-07-23T02:13:37.186Z,19.62
2018-07-23T02:18:39.323Z,19.44
2018-07-23T02:23:41.486Z,19.46
2018-07-23T02:28:43.603Z,19.48
2018-07-23T02:33:45.723Z,19.35
2018-07-23T02:38:47.874Z,19.38
2018-07-23T02:43:50.027Z,19.38
2018-07-23T02:48:52.179Z,19.38
2018-07-23T02:53:54.322Z,19.34
2018-07-23T02:58:56.479Z,19.36
2018-07-23T03:03:58.623Z,19.22
2018-07-23T03:09:00.772Z,19.09
2018-07-23T03:14:02.958Z,19.13
2018-07-23T03:19:05.114Z,19.06
2018-07-23T03:24:07.267Z,19.21
2018-07-23T03:29:09.488Z,19.19
2018-07-23T03:34:11.610Z,19.36
2018-07-23T03:39:13.708Z,19.32
2018-07-23T03:44:15.844Z,19.29
2018-07-23T03:49:17.994Z,19.28
2018-07-23T03:54:20.114Z,19.29
2018-07-23T03:59:22.316Z,19.25
2018-07-23T04:04:24.441Z,19.31
2018-07-23T04:09:26.579Z,19.20
2018-07-23T04:14:28.695Z,19.40
2018-07-23T04:19:31.278Z,19.44
2018-07-23T04:24:33.386Z,19.36
2018-07-23T04:29:35.536Z,19.44
2018-07-23T04:34:37.715Z,19.62
2018-07-23T04:39:39.840Z,19.69
2018-07-23T04:44:41.974Z,19.76
2018-07-23T04:49:44.106Z,19.75
2018-07-23T04:54:46.280Z,19.97
2018-07-23T04:59:48.434Z,20.22
2018-07-23T05:04:50.565Z,20.25
2018-07-23T05:09:52.699Z,20.19
2018-07-23T05:14:54.885Z,20.18
2018-07-23T05:19:56.993Z,20.32
2018-07-23T05:24:59.159Z,20.44
2018-07-23T05:30:01.279Z,20.59
2018-07-23T05:35:03.775Z,20.35
2018-07-23T05:40:06.351Z,20.63
2018-07-23T05:45:08.657Z,20.96
2018-07-23T05:50:10.819Z,21.16
2018-07-23T05:55:12.981Z,21.07
2018-07-23T06:00:15.185Z,21.24
2018-07-23T06:05:17.352Z,21.35
2018-07-23T06:10:19.521Z,21.47
2018-07-23T06:15:21.670Z,21.48
2018-07-23T06:20:23.875Z,21.59
2018-07-23T06:25:26.096Z,21.79
2018-07-23T06:30:28.316Z,21.89
2018-07-23T06:35:30.468Z,22.20
2018-07-23T06:40:32.641Z,22.01
2018-07-23T06:45:34.787Z,22.10
2018-07-23T06:50:36.982Z,22.41
2018-07-23T06:55:39.182Z,22.55
2018-07-23T07:00:41.390Z,22.46
2018-07-23T07:05:43.527Z,22.21
2018-07-23T07:10:45.669Z,22.46
2018-07-23T07:15:47.809Z,22.52
2018-07-23T07:20:49.949Z,22.57
2018-07-23T07:25:52.577Z,22.64
2018-07-23T07:30:54.716Z,22.78
2018-07-23T07:35:56.911Z,23.09
2018-07-23T07:40:59.084Z,23.17
2018-07-23T07:46:01.242Z,23.06
2018-07-23T07:51:03.428Z,23.03
2018-07-23T07:56:05.807Z,23.31
2018-07-23T08:01:08.027Z,23.62
2018-07-23T08:06:11.006Z,24.10
2018-07-23T08:11:13.207Z,23.82
2018-07-23T08:16:15.411Z,23.24
2018-07-23T08:21:17.511Z,23.18
2018-07-23T08:26:19.682Z,23.61
2018-07-23T08:31:21.856Z,23.94
2018-07-23T08:36:24.017Z,23.66
2018-07-23T08:41:26.196Z,23.73
2018-07-23T08:46:28.391Z,24.15
2018-07-23T08:51:30.578Z,24.30
2018-07-23T08:56:32.764Z,24.49
2018-07-23T09:01:35.036Z,24.64
2018-07-23T09:06:37.171Z,24.73
2018-07-23T09:11:39.561Z,24.88
2018-07-23T09:16:41.710Z,24.70
2018-07-23T09:21:43.939Z,24.86
2018-07-23T09:26:46.101Z,24.89
2018-07-23T09:31:48.295Z,24.64
2018-07-23T09:36:50.435Z,24.92
2018-07-23T09:41:52.634Z,25.12
2018-07-23T09:46:55.046Z,25.39
2018-07-23T09:51:57.234Z,25.13
2018-07-23T09:56:59.395Z,25.09
2018-07-23T10:02:01.599Z,25.52
2018-07-23T10:07:04.063Z,25.31
2018-07-23T10:12:06.240Z,25.14
2018-07-23T10:17:08.458Z,25.42
2018-07-23T10:22:10.683Z,25.62
2018-07-23T10:27:12.846Z,25.47
2018-07-23T10:32:15.011Z,25.40
2018-07-23T10:37:17.188Z,25.49
2018-07-23T10:42:19.368Z,25.54
2018-07-23T10:47:21.728Z,25.41
2018-07-23T10:52:23.947Z,25.35
2018-07-23T10:57:26.130Z,25.55
2018-07-23T11:02:28.336Z,25.55
2018-07-23T11:07:30.775Z,25.39
2018-07-23T11:12:33.007Z,25.38
2018-07-23T11:17:35.819Z,25.28
2018-07-23T11:22:37.990Z,25.78
2018-07-23T11:27:40.161Z,26.13
2018-07-23T11:32:42.394Z,26.28
2018-07-23T11:37:44.550Z,26.25
2018-07-23T11:42:46.755Z,26.24
2018-07-23T11:47:48.964Z,26.11
2018-07-23T11:52:51.164Z,25.93
2018-07-23T11:57:53.383Z,25.80
2018-07-23T12:02:55.604Z,25.55
2018-07-23T12:07:57.787Z,25.68
2018-07-23T12:13:00.004Z,25.65
2018-07-23T12:18:02.207Z,25.68
2018-07-23T12:23:04.426Z,25.63
2018-07-23T12:28:06.612Z,25.67
2018-07-23T12:33:08.776Z,25.76
2018-07-23T12:38:10.961Z,26.53
2018-07-23T12:43:13.111Z,27.97
2018-07-23T12:48:15.267Z,28.83
2018-07-23T12:53:17.444Z,29.84
2018-07-23T12:58:19.601Z,29.86
2018-07-23T13:03:21.818Z,29.89
2018-07-23T13:08:24.025Z,29.69
2018-07-23T13:13:26.234Z,29.60
2018-07-23T13:18:28.441Z,30.21
2018-07-23T13:23:30.628Z,31.37
2018-07-23T13:28:32.832Z,31.15
2018-07-23T13:33:35.015Z,31.14
2018-07-23T13:38:37.207Z,30.76
2018-07-23T13:43:39.435Z,31.51
2018-07-23T13:48:41.611Z,32.14
2018-07-23T13:53:43.877Z,32.45
2018-07-23T13:58:46.077Z,33.43
2018-07-23T14:03:48.298Z,32.90
2018-07-23T14:08:50.504Z,32.70
2018-07-23T14:13:52.702Z,32.18
2018-07-23T14:18:54.827Z,32.51
2018-07-23T14:23:56.980Z,31.68
2018-07-23T14:28:59.192Z,32.34
2018-07-23T14:34:01.352Z,33.01
2018-07-23T14:39:07.073Z,32.84
2018-07-23T14:44:09.538Z,32.07
2018-07-23T14:49:11.753Z,33.34
2018-07-23T14:54:13.938Z,32.29
2018-07-23T14:59:16.167Z,32.66
2018-07-23T15:04:18.387Z,32.45
2018-07-23T15:09:20.681Z,33.14
2018-07-23T15:14:23.339Z,33.81
2018-07-23T15:19:25.516Z,33.32
2018-07-23T15:24:27.679Z,33.64
2018-07-23T15:29:29.850Z,33.26
2018-07-23T15:34:32.016Z,33.21
2018-07-23T15:39:34.182Z,33.04
2018-07-23T15:44:36.713Z,31.63
2018-07-23T15:49:38.693Z,31.31
2018-07-23T15:54:40.855Z,32.60
2018-07-23T15:59:42.989Z,33.12
2018-07-23T16:04:45.162Z,33.10
2018-07-23T16:09:47.312Z,33.18
2018-07-23T16:14:49.427Z,33.60
2018-07-23T16:19:51.615Z,32.99
2018-07-23T16:24:53.787Z,33.18
2018-07-23T16:29:56.137Z,32.77
2018-07-23T16:34:58.281Z,32.16
2018-07-23T16:40:00.470Z,32.42
2018-07-23T16:45:02.683Z,32.05
2018-07-23T16:50:04.866Z,31.83
2018-07-23T16:55:07.033Z,32.12
2018-07-23T17:00:09.212Z,31.95
2018-07-23T17:05:11.459Z,31.69
2018-07-23T17:10:13.662Z,31.64
2018-07-23T17:15:15.825Z,31.15
2018-07-23T17:20:17.961Z,31.26
2018-07-23T17:25:20.126Z,30.77
2018-07-23T17:30:22.280Z,30.67
2018-07-23T17:35:24.414Z,30.57
2018-07-23T17:40:26.601Z,30.63
2018-07-23T17:45:28.759Z,30.59
2018-07-23T17:50:31.121Z,30.47
2018-07-23T17:55:33.274Z,30.22
2018-07-23T18:00:35.457Z,29.78
2018-07-23T18:05:37.674Z,29.66
2018-07-23T18:10:39.875Z,29.64
2018-07-23T18:15:42.075Z,29.13
2018-07-23T18:20:44.267Z,28.68
2018-07-23T18:25:46.478Z,28.10
2018-07-23T18:30:48.667Z,27.79
2018-07-23T18:35:50.895Z,27.55
2018-07-23T18:40:53.127Z,27.35
2018-07-23T18:45:55.382Z,27.14
2018-07-23T18:50:57.602Z,26.94
2018-07-23T18:55:59.783Z,26.74
2018-07-23T19:01:01.997Z,26.75
2018-07-23T19:06:04.335Z,26.70
2018-07-23T19:11:06.590Z,26.60
2018-07-23T19:16:08.808Z,26.48
2018-07-23T19:21:11.017Z,26.30
2018-07-23T19:26:13.221Z,26.23
2018-07-23T19:31:15.415Z,26.05
2018-07-23T19:36:18.138Z,25.96
2018-07-23T19:41:20.387Z,25.81
2018-07-23T19:46:22.829Z,25.75
2018-07-23T19:51:25.100Z,25.68
2018-07-23T19:56:27.313Z,25.57
2018-07-23T20:01:29.548Z,25.43
2018-07-23T20:06:31.923Z,25.29
2018-07-23T20:11:34.166Z,25.39
2018-07-23T20:16:36.368Z,25.41
2018-07-23T20:21:38.558Z,25.43
2018-07-23T20:26:40.757Z,25.39
2018-07-23T20:31:42.992Z,25.36
2018-07-23T20:36:45.208Z,25.28
2018-07-23T20:41:47.551Z,25.21
2018-07-23T20:46:50.549Z,25.09
2018-07-23T20:51:52.805Z,25.02
2018-07-23T20:56:54.989Z,24.99
2018-07-23T21:01:57.151Z,25.53
2018-07-23T21:07:03.870Z,25.63
2018-07-23T21:12:06.708Z,25.50
2018-07-23T21:17:08.964Z,25.28
2018-07-23T21:22:11.279Z,25.41
2018-07-23T21:27:17.133Z,25.43
2018-07-23T21:32:20.449Z,25.34
2018-07-23T21:37:22.749Z,25.39
2018-07-23T21:42:24.955Z,25.24
2018-07-23T21:47:27.300Z,25.18
2018-07-23T21:52:30.343Z,25.17
2018-07-23T21:57:33.865Z,25.16
2018-07-23T22:02:37.477Z,25.09
2018-07-23T22:07:41.169Z,25.10
2018-07-23T22:12:44.436Z,25.05
2018-07-23T22:17:47.799Z,24.96
2018-07-23T22:22:51.613Z,24.99
2018-07-23T22:27:54.850Z,24.93
2018-07-23T22:32:58.756Z,24.92
2018-07-23T22:38:01.043Z,24.84
2018-07-23T22:43:03.217Z,24.77
2018-07-23T22:48:05.399Z,24.70
2018-07-23T22:53:07.667Z,24.61
2018-07-23T22:58:09.803Z,24.60
2018-07-23T23:03:12.039Z,24.54
2018-07-23T23:08:14.228Z,24.56
2018-07-23T23:13:16.597Z,24.46
2018-07-23T23:18:18.803Z,24.52
2018-07-23T23:23:20.949Z,24.41
2018-07-23T23:28:23.092Z,24.41
2018-07-23T23:33:25.337Z,24.37
2018-07-23T23:38:27.489Z,24.26
2018-07-23T23:43:29.825Z,24.34
2018-07-23T23:48:32.316Z,24.28
2018-07-23T23:53:34.483Z,24.27
2018-07-23T23:58:38.528Z,24.20
